Time;durP1;ratioP1;P1;durP2;ratioP2;P2;SDS_P1;SDS_P2;PMS_P1;PMS_P2;Temp;Humidity;BMP_temperature;BMP_pressure;BME280_temperature;BME280_humidity;BME280_pressure;Samples;Min_cycle;Max_cycle;Signal;HPM_P1;HPM_P2
2021/12/18 00:02:00;;;;;;;12.17;5.60;;;3.10;99.90;;;;;;10290387;28;20030;-84
2021/12/18 00:07:01;;;;;;;15.30;6.17;;;3.10;99.90;;;;;;10289683;28;20046;-84
2021/12/18 00:12:04;;;;;;;11.27;6.33;;;3.10;99.90;;;;;;10291848;28;20027;-85
2021/12/18 00:17:05;;;;;;;19.00;5.90;;;3.00;99.90;;;;;;10291189;28;20406;-84
2021/12/18 00:22:05;;;;;;;14.17;5.27;;;3.00;99.90;;;;;;10290947;28;20035;-84
2021/12/18 00:27:07;;;;;;;12.87;6.13;;;3.00;99.90;;;;;;10291225;28;20051;-85
2021/12/18 00:32:07;;;;;;;13.00;6.23;;;3.00;99.90;;;;;;10291491;28;20035;-85
2021/12/18 00:37:08;;;;;;;16.23;6.47;;;2.90;99.90;;;;;;10291964;28;20482;-86
2021/12/18 00:42:23;;;;;;;17.10;7.07;;;2.90;99.90;;;;;;10274539;28;20478;-84
2021/12/18 00:47:24;;;;;;;14.80;6.30;;;2.90;99.90;;;;;;10294452;28;20045;-87
2021/12/18 00:52:25;;;;;;;17.77;7.40;;;2.90;99.90;;;;;;10318237;28;20054;-86
2021/12/18 00:57:25;;;;;;;18.23;7.03;;;2.90;99.90;;;;;;10331304;28;20036;-85
2021/12/18 01:02:28;;;;;;;19.37;7.53;;;2.80;99.90;;;;;;10308754;28;20031;-84
2021/12/18 01:07:28;;;;;;;19.43;7.80;;;2.80;99.90;;;;;;10290056;28;20038;-84
2021/12/18 01:12:37;;;;;;;19.30;7.50;;;2.80;99.90;;;;;;10294633;28;20039;-84
2021/12/18 01:22:57;;;;;;;16.80;8.53;;;2.80;99.90;;;;;;10301837;28;20039;-83
2021/12/18 01:27:58;;;;;;;24.87;7.40;;;2.70;99.90;;;;;;10289174;28;20031;-84
2021/12/18 01:32:58;;;;;;;19.60;7.47;;;2.60;99.90;;;;;;10279433;28;20093;-84
2021/12/18 01:37:59;;;;;;;22.40;7.90;;;2.50;99.90;;;;;;10288698;28;20050;-85
2021/12/18 01:53:38;;;;;;;20.67;7.63;;;2.40;99.90;;;;;;10296367;28;20055;-84
2021/12/18 01:58:40;;;;;;;21.53;8.03;;;2.40;99.90;;;;;;10288716;28;20504;-85
2021/12/18 02:03:41;;;;;;;17.07;7.27;;;2.40;99.90;;;;;;10292229;28;20093;-84
2021/12/18 02:08:44;;;;;;;18.60;8.40;;;2.40;99.90;;;;;;10320754;28;20080;-84
2021/12/18 02:24:07;;;;;;;16.93;8.40;;;2.40;99.90;;;;;;10288707;28;20034;-84
2021/12/18 02:29:13;;;;;;;18.30;7.83;;;2.40;99.90;;;;;;10294225;28;20034;-85
2021/12/18 02:34:18;;;;;;;19.55;7.22;;;2.50;99.90;;;;;;10290395;28;20062;-84
2021/12/18 02:39:25;;;;;;;18.05;8.27;;;2.50;99.90;;;;;;10287670;28;20027;-85
2021/12/18 02:44:26;;;;;;;18.77;8.63;;;2.50;99.90;;;;;;10271973;28;20133;-85
2021/12/18 02:49:28;;;;;;;18.63;7.97;;;2.50;99.90;;;;;;10291747;28;20133;-84
2021/12/18 02:54:28;;;;;;;23.10;8.73;;;2.50;99.90;;;;;;10316684;28;20081;-84
2021/12/18 02:59:40;;;;;;;20.90;8.60;;;2.50;99.90;;;;;;10295042;28;20105;-87
2021/12/18 03:04:43;;;;;;;20.93;8.87;;;2.50;99.90;;;;;;10321935;28;20042;-84
2021/12/18 03:19:03;;;;;;;26.27;9.57;;;2.50;99.90;;;;;;10289050;28;20031;-86
2021/12/18 03:25:55;;;;;;;25.47;9.60;;;2.30;99.90;;;;;;10305206;28;20414;-84
2021/12/18 03:30:57;;;;;;;21.90;9.53;;;2.30;99.90;;;;;;10318879;28;20081;-85
2021/12/18 03:35:58;;;;;;;21.73;9.23;;;2.30;99.90;;;;;;10286009;28;20460;-84
2021/12/18 03:40:59;;;;;;;34.10;9.60;;;2.30;99.90;;;;;;10299556;28;20283;-84
2021/12/18 03:45:59;;;;;;;21.43;9.03;;;2.40;99.90;;;;;;10300466;28;20616;-85
2021/12/18 03:51:00;;;;;;;20.73;9.67;;;2.40;99.90;;;;;;10291607;28;20146;-84
2021/12/18 03:56:02;;;;;;;26.80;10.13;;;2.40;99.90;;;;;;10295415;28;20031;-86
2021/12/18 04:01:03;;;;;;;25.73;11.67;;;2.30;99.90;;;;;;10295512;28;20069;-84
2021/12/18 04:06:04;;;;;;;26.17;12.13;;;2.30;99.90;;;;;;10273365;28;20735;-86
2021/12/18 04:11:04;;;;;;;23.03;11.07;;;2.40;99.90;;;;;;10275118;28;20038;-84
2021/12/18 04:16:05;;;;;;;20.70;9.83;;;2.30;99.90;;;;;;10299440;28;20125;-85
2021/12/18 04:21:06;;;;;;;25.73;9.90;;;2.40;99.90;;;;;;10320232;28;20050;-85
2021/12/18 04:26:07;;;;;;;24.43;10.93;;;2.40;99.90;;;;;;10291448;28;20051;-84
2021/12/18 04:31:07;;;;;;;22.97;11.13;;;2.40;99.90;;;;;;10291456;28;20113;-86
2021/12/18 04:36:08;;;;;;;23.23;11.33;;;2.40;99.90;;;;;;10300078;28;20049;-85
2021/12/18 04:41:10;;;;;;;26.43;11.13;;;2.40;99.90;;;;;;10331704;28;20038;-85
2021/12/18 04:46:11;;;;;;;22.83;10.73;;;2.40;99.90;;;;;;10304175;28;20035;-85
2021/12/18 04:51:12;;;;;;;25.07;10.27;;;2.30;99.90;;;;;;10291202;28;20054;-86
2021/12/18 04:56:12;;;;;;;28.90;10.73;;;2.30;99.90;;;;;;10289299;28;20035;-83
2021/12/18 05:01:14;;;;;;;25.70;11.00;;;2.30;99.90;;;;;;10288856;28;20086;-83
2021/12/18 05:06:16;;;;;;;20.93;9.47;;;2.30;99.90;;;;;;10290456;28;20038;-86
2021/12/18 05:11:16;;;;;;;20.50;10.10;;;2.30;99.90;;;;;;10271844;28;20034;-83
2021/12/18 05:16:17;;;;;;;18.83;8.13;;;2.30;99.90;;;;;;10289002;28;20114;-86
2021/12/18 05:21:18;;;;;;;24.33;9.40;;;2.30;99.90;;;;;;10289355;28;20082;-83
2021/12/18 05:26:19;;;;;;;22.83;9.87;;;2.20;99.90;;;;;;10289132;28;20046;-84
2021/12/18 05:31:19;;;;;;;13.73;7.60;;;2.20;99.90;;;;;;10289165;28;20045;-84
2021/12/18 05:36:33;;;;;;;31.13;12.70;;;2.20;99.90;;;;;;10288552;28;20039;-84
2021/12/18 05:41:35;;;;;;;20.60;9.60;;;2.20;99.90;;;;;;10276872;28;20067;-83
2021/12/18 05:46:36;;;;;;;24.63;8.87;;;2.20;99.90;;;;;;10270596;28;20672;-83
2021/12/18 05:51:37;;;;;;;23.73;9.00;;;2.20;99.90;;;;;;10271460;28;20074;-85
2021/12/18 05:56:38;;;;;;;20.83;8.20;;;2.20;99.90;;;;;;10288781;28;20034;-84
2021/12/18 06:01:39;;;;;;;22.43;9.37;;;2.10;99.90;;;;;;10277655;28;20046;-84
2021/12/18 06:06:40;;;;;;;20.07;8.60;;;2.10;99.90;;;;;;10252216;28;20046;-83
2021/12/18 06:11:41;;;;;;;26.97;10.87;;;2.10;99.90;;;;;;10247887;29;20029;-84
2021/12/18 06:16:42;;;;;;;21.87;9.87;;;2.10;99.90;;;;;;10281812;28;20070;-84
2021/12/18 06:21:42;;;;;;;22.07;8.97;;;2.10;99.90;;;;;;10287549;28;20050;-84
2021/12/18 06:26:44;;;;;;;20.93;8.33;;;2.20;99.90;;;;;;10270078;28;20026;-84
2021/12/18 06:31:45;;;;;;;24.57;9.50;;;2.10;99.90;;;;;;10287492;28;20495;-85
2021/12/18 06:36:47;;;;;;;19.33;8.43;;;2.10;99.90;;;;;;10286590;28;20050;-82
2021/12/18 06:41:48;;;;;;;24.07;9.27;;;2.20;99.90;;;;;;10287384;28;20030;-83
2021/12/18 06:46:49;;;;;;;17.30;7.10;;;2.10;99.90;;;;;;10285559;28;20063;-82
2021/12/18 06:51:50;;;;;;;20.13;8.33;;;2.10;99.90;;;;;;10286858;28;20095;-82
2021/12/18 06:56:50;;;;;;;24.80;8.90;;;2.10;99.90;;;;;;10270000;28;20038;-82
2021/12/18 07:01:52;;;;;;;25.47;8.73;;;2.20;99.90;;;;;;10285360;28;20394;-82
2021/12/18 07:06:54;;;;;;;22.53;9.30;;;2.20;99.90;;;;;;10268358;28;20051;-82
2021/12/18 07:11:55;;;;;;;18.37;9.13;;;2.20;99.90;;;;;;10286349;28;20031;-82
2021/12/18 07:16:56;;;;;;;25.90;10.53;;;2.20;99.90;;;;;;10289920;28;20035;-83
2021/12/18 07:21:56;;;;;;;19.87;8.50;;;2.20;99.90;;;;;;10294682;28;20536;-83
2021/12/18 07:26:57;;;;;;;22.30;8.83;;;2.30;99.90;;;;;;10293521;28;20038;-83
2021/12/18 07:31:58;;;;;;;21.77;11.57;;;2.30;99.90;;;;;;10293555;28;20044;-82
2021/12/18 07:36:59;;;;;;;27.03;11.57;;;2.30;99.90;;;;;;10293274;28;20557;-83
2021/12/18 07:41:59;;;;;;;33.07;16.33;;;2.40;99.90;;;;;;10293648;28;20034;-83
2021/12/18 07:47:00;;;;;;;26.17;11.20;;;2.40;99.90;;;;;;10293822;28;20042;-82
2021/12/18 07:52:03;;;;;;;24.10;9.47;;;2.50;99.90;;;;;;10271225;28;20133;-83
2021/12/18 07:57:04;;;;;;;29.17;11.67;;;2.40;99.90;;;;;;10276238;28;20101;-83
2021/12/18 08:02:05;;;;;;;25.23;11.03;;;2.50;99.90;;;;;;10287441;28;20554;-89
2021/12/18 08:07:06;;;;;;;19.03;9.80;;;2.50;99.90;;;;;;10242355;29;20569;-82
2021/12/18 08:12:07;;;;;;;23.57;8.00;;;2.50;99.90;;;;;;10288158;28;20411;-84
2021/12/18 08:17:08;;;;;;;18.13;8.77;;;2.60;99.90;;;;;;10286044;28;20486;-85
2021/12/18 08:22:08;;;;;;;21.70;8.17;;;2.60;99.90;;;;;;10236722;28;20031;-82
2021/12/18 08:27:10;;;;;;;24.27;9.07;;;2.60;99.90;;;;;;10252461;28;20043;-84
2021/12/18 08:32:14;;;;;;;22.80;12.07;;;2.60;99.90;;;;;;10281690;28;20023;-86
2021/12/18 08:37:20;;;;;;;16.87;7.13;;;2.70;99.90;;;;;;10273374;28;20674;-85
2021/12/18 08:42:21;;;;;;;21.70;8.48;;;2.70;99.90;;;;;;10291300;28;20460;-85
2021/12/18 08:47:21;;;;;;;20.93;8.33;;;2.80;99.90;;;;;;10273196;28;20041;-86
2021/12/18 08:52:28;;;;;;;25.57;11.90;;;2.80;99.90;;;;;;10290659;28;20058;-85
2021/12/18 09:03:54;;;;;;;20.60;8.03;;;2.90;99.90;;;;;;10290023;28;20039;-85
2021/12/18 09:08:54;;;;;;;32.43;15.57;;;2.90;99.90;;;;;;10266347;28;20035;-84
2021/12/18 09:13:55;;;;;;;20.97;10.20;;;3.00;99.90;;;;;;10268575;28;20065;-83
2021/12/18 09:18:56;;;;;;;28.53;13.17;;;3.00;99.90;;;;;;10289636;28;20054;-85
2021/12/18 09:29:58;;;;;;;91.50;37.37;;;2.80;99.90;;;;;;10249048;28;20064;-84
2021/12/18 09:34:59;;;;;;;80.63;37.77;;;2.90;99.90;;;;;;10248811;28;20360;-84
2021/12/18 09:46:02;;;;;;;47.63;21.85;;;3.00;99.90;;;;;;10300119;28;20295;-83
2021/12/18 09:51:08;;;;;;;27.97;12.73;;;3.00;99.90;;;;;;10309981;28;20058;-83
2021/12/18 09:56:08;;;;;;;36.33;16.17;;;3.00;99.90;;;;;;10257381;28;20039;-85
2021/12/18 10:01:09;;;;;;;29.10;12.73;;;3.10;99.90;;;;;;10258325;28;20034;-86
2021/12/18 10:06:42;;;;;;;28.73;14.13;;;3.20;99.90;;;;;;10281331;28;20047;-84
2021/12/18 10:11:52;;;;;;;34.07;14.17;;;3.20;99.90;;;;;;10286644;28;20434;-84
2021/12/18 10:16:52;;;;;;;27.20;11.87;;;3.10;99.90;;;;;;10313709;28;20026;-85
2021/12/18 10:21:58;;;;;;;55.60;22.77;;;3.10;99.90;;;;;;10270328;28;20479;-83
2021/12/18 10:27:01;;;;;;;70.30;26.53;;;3.20;99.90;;;;;;10273924;28;20039;-84
2021/12/18 10:32:11;;;;;;;78.40;29.83;;;3.20;99.90;;;;;;10252262;28;20022;-83
2021/12/18 10:37:26;;;;;;;74.50;31.27;;;3.20;99.90;;;;;;10285465;28;20051;-84
2021/12/18 10:42:42;;;;;;;71.13;29.67;;;3.30;99.90;;;;;;10288964;28;20026;-86
2021/12/18 10:47:57;;;;;;;30.60;12.65;;;3.30;99.90;;;;;;10299859;28;20131;-85
2021/12/18 10:53:12;;;;;;;45.03;20.53;;;3.40;99.90;;;;;;10278666;28;20047;-84
2021/12/18 10:58:18;;;;;;;51.83;21.07;;;3.40;99.90;;;;;;10274124;28;20453;-87
2021/12/18 11:03:24;;;;;;;;;;;3.40;99.90;;;;;;10296628;28;20055;-87
2021/12/18 11:09:27;;;;;;;54.30;24.10;;;3.50;99.90;;;;;;10284815;28;19914;-85
2021/12/18 11:14:28;;;;;;;32.80;15.80;;;3.50;99.90;;;;;;10224063;28;20659;-84
2021/12/18 11:19:30;;;;;;;35.13;17.20;;;3.50;99.90;;;;;;10303695;28;20034;-84
2021/12/18 11:24:57;;;;;;;38.23;18.10;;;3.40;99.90;;;;;;10279777;28;20070;-88
2021/12/18 11:30:10;;;;;;;104.67;46.00;;;3.50;99.90;;;;;;10321081;28;20560;-84
2021/12/18 11:35:14;;;;;;;58.77;27.00;;;3.50;99.90;;;;;;10269524;28;20046;-86
2021/12/18 11:40:19;;;;;;;104.23;44.73;;;3.50;99.90;;;;;;10269369;28;20034;-86
2021/12/18 11:45:29;;;;;;;56.53;23.37;;;3.50;99.90;;;;;;10298700;28;20050;-84
2021/12/18 11:50:38;;;;;;;71.53;33.37;;;3.50;99.90;;;;;;10269644;28;20153;-86
2021/12/18 11:55:51;;;;;;;61.23;28.33;;;3.40;99.90;;;;;;10269218;28;20035;-87
2021/12/18 12:01:05;;;;;;;50.83;24.30;;;3.50;99.90;;;;;;10317693;28;20031;-83
2021/12/18 12:06:30;;;;;;;45.73;23.80;;;3.50;99.90;;;;;;10293543;28;20073;-85
2021/12/18 12:11:31;;;;;;;56.10;24.50;;;3.40;99.90;;;;;;10303508;28;20026;-84
2021/12/18 12:16:44;;;;;;;68.63;30.47;;;3.40;99.90;;;;;;10274691;28;20038;-85
2021/12/18 12:21:46;;;;;;;53.73;26.53;;;3.40;99.90;;;;;;10292972;28;20554;-84
2021/12/18 12:26:48;;;;;;;64.57;30.10;;;3.50;99.90;;;;;;10301593;28;20038;-85
2021/12/18 12:32:05;;;;;;;67.50;30.17;;;3.50;99.90;;;;;;10292058;28;20030;-85
2021/12/18 12:37:27;;;;;;;49.57;24.20;;;3.50;99.90;;;;;;10294128;28;20473;-81
2021/12/18 12:42:29;;;;;;;56.17;28.57;;;3.50;99.90;;;;;;10330515;28;20026;-86
2021/12/18 12:47:31;;;;;;;53.13;22.70;;;3.50;99.90;;;;;;10304206;28;20038;-84
2021/12/18 12:52:31;;;;;;;72.13;33.60;;;3.50;99.90;;;;;;10290378;28;20125;-88
2021/12/18 12:57:38;;;;;;;48.43;23.07;;;3.50;99.90;;;;;;10299972;28;20117;-85
2021/12/18 13:02:56;;;;;;;87.57;42.87;;;3.50;99.90;;;;;;10307488;28;20069;-85
2021/12/18 13:08:00;;;;;;;97.70;43.47;;;3.50;99.90;;;;;;10239348;28;20073;-86
2021/12/18 13:13:10;;;;;;;95.00;43.77;;;3.50;99.90;;;;;;10298115;28;20034;-84
2021/12/18 13:18:11;;;;;;;93.07;41.13;;;3.50;99.90;;;;;;10315117;28;20076;-87
2021/12/18 13:23:17;;;;;;;87.40;37.93;;;3.50;99.90;;;;;;10298547;28;20031;-87
2021/12/18 13:28:19;;;;;;;104.35;43.58;;;3.40;99.90;;;;;;10310303;28;20122;-86
2021/12/18 13:33:29;;;;;;;74.80;34.53;;;3.40;99.90;;;;;;10293856;28;20031;-84
2021/12/18 13:38:36;;;;;;;53.57;26.63;;;3.40;99.90;;;;;;10289288;28;20022;-88
2021/12/18 13:43:36;;;;;;;;;;;3.40;99.90;;;;;;10300884;28;20039;-84
2021/12/18 13:48:42;;;;;;;96.63;44.77;;;3.40;99.90;;;;;;10290711;28;19910;-83
2021/12/18 13:53:59;;;;;;;75.53;37.17;;;3.40;99.90;;;;;;10280190;28;20080;-84
2021/12/18 13:59:15;;;;;;;92.67;42.93;;;3.40;99.90;;;;;;10286074;28;20082;-86
2021/12/18 14:04:22;;;;;;;122.80;58.27;;;3.40;99.90;;;;;;10304206;28;20041;-83
2021/12/18 14:09:27;;;;;;;90.17;40.13;;;3.40;99.90;;;;;;10288057;28;20038;-84
2021/12/18 14:14:43;;;;;;;127.17;56.00;;;3.50;99.90;;;;;;10287601;28;20034;-86
2021/12/18 14:19:47;;;;;;;141.50;63.40;;;3.50;99.90;;;;;;10287609;28;20035;-85
2021/12/18 14:24:59;;;;;;;102.47;48.90;;;3.50;99.90;;;;;;10297965;28;20042;-85
2021/12/18 14:29:59;;;;;;;66.13;31.47;;;3.50;99.90;;;;;;10302687;28;20509;-85
2021/12/18 14:35:06;;;;;;;123.73;60.40;;;3.50;99.90;;;;;;10303731;28;20030;-84
2021/12/18 14:40:15;;;;;;;103.33;50.77;;;3.50;99.90;;;;;;10306735;28;20031;-83
2021/12/18 14:45:21;;;;;;;82.97;39.60;;;3.50;99.90;;;;;;10310006;28;20046;-83
2021/12/18 14:50:39;;;;;;;104.80;50.43;;;3.50;99.90;;;;;;10303227;28;20761;-85
2021/12/18 14:55:39;;;;;;;80.87;38.90;;;3.50;99.90;;;;;;10287356;28;20062;-84
2021/12/18 15:00:46;;;;;;;94.57;46.73;;;3.50;99.90;;;;;;10286226;28;20060;-86
2021/12/18 15:05:53;;;;;;;102.43;49.73;;;3.50;99.90;;;;;;10286924;28;20035;-84
2021/12/18 15:10:57;;;;;;;89.53;44.07;;;3.50;99.90;;;;;;10285368;28;20027;-84
2021/12/18 15:16:07;;;;;;;132.30;60.80;;;3.50;99.90;;;;;;10285238;28;20027;-86
2021/12/18 15:21:09;;;;;;;116.57;51.77;;;3.50;99.90;;;;;;10285507;28;20533;-88
2021/12/18 15:26:11;;;;;;;134.53;62.40;;;3.60;99.90;;;;;;10266895;28;20098;-84
2021/12/18 15:31:12;;;;;;;170.27;70.03;;;3.60;99.90;;;;;;10285020;28;20505;-85
2021/12/18 15:36:13;;;;;;;80.03;40.40;;;3.50;99.90;;;;;;10286134;28;20031;-82
2021/12/18 15:41:13;;;;;;;138.53;63.87;;;3.50;99.90;;;;;;10291997;28;20038;-82
2021/12/18 15:46:14;;;;;;;96.10;45.87;;;3.50;99.90;;;;;;10292339;28;20066;-82
2021/12/18 15:51:16;;;;;;;95.73;48.07;;;3.50;99.90;;;;;;10292183;28;20061;-83
2021/12/18 15:56:17;;;;;;;154.10;68.67;;;3.40;99.90;;;;;;10290841;28;20027;-87
2021/12/18 16:01:19;;;;;;;129.40;57.37;;;3.40;99.90;;;;;;10283056;28;20042;-85
2021/12/18 16:06:20;;;;;;;146.87;67.63;;;3.40;99.90;;;;;;10296969;28;20042;-84
2021/12/18 16:11:20;;;;;;;138.83;60.40;;;3.40;99.90;;;;;;10310900;28;20023;-85
2021/12/18 16:16:21;;;;;;;94.90;43.60;;;3.40;99.90;;;;;;10318527;28;20034;-85
2021/12/18 16:21:22;;;;;;;90.33;42.80;;;3.50;99.90;;;;;;10292013;28;20062;-86
2021/12/18 16:26:23;;;;;;;107.43;53.90;;;3.50;99.90;;;;;;10291540;28;20566;-85
2021/12/18 16:31:24;;;;;;;146.60;84.17;;;3.40;99.90;;;;;;10273594;28;20054;-87
2021/12/18 16:36:28;;;;;;;131.93;64.87;;;3.50;99.90;;;;;;10292856;28;20062;-82
2021/12/18 16:41:28;;;;;;;115.50;54.10;;;3.50;99.90;;;;;;10296190;28;20035;-84
2021/12/18 16:46:29;;;;;;;89.97;43.63;;;3.50;99.90;;;;;;10305494;28;20043;-84
2021/12/18 16:51:31;;;;;;;90.60;42.30;;;3.50;99.90;;;;;;10291170;28;20039;-86
2021/12/18 16:56:32;;;;;;;98.60;47.50;;;3.60;99.90;;;;;;10304554;28;20538;-84
2021/12/18 17:01:33;;;;;;;99.90;48.10;;;3.60;99.90;;;;;;10317266;28;20058;-84
2021/12/18 17:06:34;;;;;;;79.23;37.47;;;3.60;99.90;;;;;;10288222;28;20126;-84
2021/12/18 17:11:35;;;;;;;107.60;50.70;;;3.60;99.90;;;;;;10279948;28;20427;-85
2021/12/18 17:16:36;;;;;;;102.73;48.87;;;3.60;99.90;;;;;;10288317;28;20034;-86
2021/12/18 17:21:37;;;;;;;122.03;54.37;;;3.70;99.90;;;;;;10287808;28;20033;-86
2021/12/18 17:26:37;;;;;;;117.93;54.43;;;3.70;99.90;;;;;;10291879;28;20050;-85
2021/12/18 17:31:38;;;;;;;103.83;48.37;;;3.70;99.90;;;;;;10292412;28;20044;-84
2021/12/18 17:36:40;;;;;;;82.00;41.07;;;3.70;99.90;;;;;;10284641;28;20041;-87
2021/12/18 17:41:41;;;;;;;120.47;57.10;;;3.70;99.90;;;;;;10298004;28;20394;-85
2021/12/18 17:46:44;;;;;;;150.10;65.67;;;3.80;99.90;;;;;;10303388;28;20075;-86
2021/12/18 17:51:44;;;;;;;92.73;41.73;;;3.80;99.90;;;;;;10294184;28;20089;-86
2021/12/18 17:56:45;;;;;;;105.57;49.60;;;3.80;99.90;;;;;;10293403;28;20058;-87
2021/12/18 18:01:46;;;;;;;106.37;49.43;;;3.80;99.90;;;;;;10278936;28;20023;-85
2021/12/18 18:06:46;;;;;;;129.03;57.60;;;3.80;99.90;;;;;;10269506;28;20042;-90
2021/12/18 18:11:48;;;;;;;99.87;44.73;;;3.80;99.90;;;;;;10289007;28;20054;-87
2021/12/18 18:16:48;;;;;;;149.53;66.53;;;3.80;99.90;;;;;;10287453;28;20061;-87
2021/12/18 18:21:49;;;;;;;200.47;93.07;;;3.80;99.90;;;;;;10286709;28;20070;-87
2021/12/18 18:26:50;;;;;;;176.50;75.53;;;3.80;99.90;;;;;;10283606;28;20060;-87
2021/12/18 18:31:51;;;;;;;168.77;78.47;;;3.80;99.90;;;;;;10287689;28;20042;-87
2021/12/18 18:36:52;;;;;;;138.30;63.27;;;3.80;99.90;;;;;;10268586;28;20034;-88
2021/12/18 18:41:53;;;;;;;150.30;68.33;;;3.90;99.90;;;;;;10287052;28;20041;-87
2021/12/18 18:47:01;;;;;;;178.87;83.17;;;3.80;99.90;;;;;;10286372;28;20047;-87
2021/12/18 18:52:02;;;;;;;167.63;73.70;;;3.80;99.90;;;;;;10267575;28;20101;-87
2021/12/18 18:57:05;;;;;;;136.30;64.03;;;3.80;99.90;;;;;;10268601;28;20701;-87
2021/12/18 19:02:09;;;;;;;178.80;76.13;;;3.80;99.90;;;;;;10282675;28;20101;-86
2021/12/18 19:07:10;;;;;;;156.87;62.10;;;3.80;99.90;;;;;;10260859;28;20050;-88
2021/12/18 19:12:12;;;;;;;159.17;67.97;;;3.90;99.90;;;;;;10271488;28;20022;-87
2021/12/18 19:17:13;;;;;;;166.57;73.03;;;3.80;99.90;;;;;;10293661;28;20031;-85
2021/12/18 19:22:14;;;;;;;157.97;67.00;;;3.90;99.90;;;;;;10277459;28;20406;-85
2021/12/18 19:27:15;;;;;;;161.87;70.43;;;3.80;99.90;;;;;;10290059;28;20097;-86
2021/12/18 19:32:16;;;;;;;180.33;69.87;;;3.80;99.90;;;;;;10264678;28;20542;-86
2021/12/18 19:37:16;;;;;;;147.97;62.87;;;3.80;99.90;;;;;;10276021;28;20105;-86
2021/12/18 19:42:17;;;;;;;148.07;63.63;;;3.80;99.90;;;;;;10274950;28;20031;-87
2021/12/18 19:47:18;;;;;;;163.80;66.90;;;3.80;99.90;;;;;;10292843;28;20431;-86
2021/12/18 19:52:19;;;;;;;159.53;64.47;;;3.80;99.90;;;;;;10292212;28;20055;-85
2021/12/18 19:57:20;;;;;;;162.60;63.60;;;3.80;99.90;;;;;;10275426;28;20041;-86
2021/12/18 20:02:55;;;;;;;136.37;59.97;;;3.80;99.90;;;;;;10292627;28;20038;-86
2021/12/18 20:07:51;;;;;;;146.83;61.93;;;3.80;99.90;;;;;;10291009;28;20506;-85
2021/12/18 20:12:55;;;;;;;170.40;70.27;;;3.90;99.90;;;;;;10291066;28;20035;-86
2021/12/18 20:17:56;;;;;;;162.53;66.90;;;3.90;99.90;;;;;;10291046;28;20035;-85
2021/12/18 20:23:02;;;;;;;150.73;66.37;;;3.90;99.90;;;;;;10289969;28;20118;-86
2021/12/18 20:28:05;;;;;;;;;;;3.90;99.90;;;;;;10290642;28;20474;-88
2021/12/18 20:33:10;;;;;;;184.13;76.47;;;3.90;99.90;;;;;;10286772;28;19964;-84
2021/12/18 20:38:14;;;;;;;106.53;45.13;;;4.00;99.90;;;;;;10289937;28;20023;-85
2021/12/18 20:43:19;;;;;;;122.67;48.50;;;4.00;99.90;;;;;;10290256;28;20045;-87
2021/12/18 20:48:22;;;;;;;138.95;52.40;;;4.00;99.90;;;;;;10272596;28;20513;-85
2021/12/18 20:53:23;;;;;;;107.23;40.03;;;4.10;99.90;;;;;;10271784;28;20057;-88
2021/12/18 20:58:23;;;;;;;121.87;45.67;;;4.10;99.90;;;;;;10291385;28;20039;-85
2021/12/18 21:03:24;;;;;;;121.87;41.33;;;4.20;99.90;;;;;;10272807;28;20043;-86
2021/12/18 21:08:26;;;;;;;125.30;43.10;;;4.30;99.90;;;;;;10272398;28;20104;-86
2021/12/18 21:13:33;;;;;;;109.97;35.53;;;4.30;99.90;;;;;;10289263;28;20034;-86
2021/12/18 21:18:36;;;;;;;128.40;39.67;;;4.40;99.90;;;;;;10289745;28;20037;-85
2021/12/18 21:23:40;;;;;;;128.70;40.23;;;4.40;99.90;;;;;;10288183;28;20109;-86
2021/12/18 21:28:40;;;;;;;124.60;39.30;;;4.40;99.90;;;;;;10271599;28;20494;-86
2021/12/18 21:33:50;;;;;;;113.17;38.03;;;4.40;99.90;;;;;;10260406;28;20030;-86
2021/12/18 21:38:51;;;;;;;107.03;37.23;;;4.50;99.90;;;;;;10282314;28;20376;-85
2021/12/18 21:43:52;;;;;;;133.07;46.93;;;4.50;99.90;;;;;;10288410;28;20030;-87
2021/12/18 21:48:53;;;;;;;86.13;30.97;;;4.50;99.90;;;;;;10288305;28;20038;-86
2021/12/18 21:53:54;;;;;;;68.07;30.00;;;4.50;99.90;;;;;;10288481;28;20038;-85
2021/12/18 21:58:55;;;;;;;66.27;28.50;;;4.50;99.90;;;;;;10288428;28;20130;-86
2021/12/18 22:04:01;;;;;;;54.17;27.27;;;4.50;99.90;;;;;;10279340;28;20505;-86
2021/12/18 22:09:03;;;;;;;39.67;19.17;;;4.50;99.90;;;;;;10249813;28;20050;-85
2021/12/18 22:20:05;;;;;;;40.40;20.37;;;4.50;99.90;;;;;;10285932;28;20046;-86
2021/12/18 22:25:07;;;;;;;50.93;24.73;;;4.50;99.90;;;;;;10280197;28;20409;-86
2021/12/18 22:30:09;;;;;;;59.97;27.80;;;4.50;99.90;;;;;;10251965;28;20023;-87
2021/12/18 22:35:53;;;;;;;45.23;22.13;;;4.50;99.90;;;;;;10286201;28;20035;-88
2021/12/18 22:40:56;;;;;;;42.27;22.57;;;4.50;99.90;;;;;;10286668;28;20031;-85
2021/12/18 22:45:58;;;;;;;47.63;23.70;;;4.50;99.90;;;;;;10286256;28;20122;-88
2021/12/18 22:50:59;;;;;;;53.43;26.23;;;4.60;99.90;;;;;;10286773;28;20093;-86
2021/12/18 22:56:04;;;;;;;46.23;23.43;;;4.60;99.90;;;;;;10284705;28;20054;-85
2021/12/18 23:01:16;;;;;;;73.03;33.03;;;4.50;99.90;;;;;;10262152;28;20019;-86
2021/12/18 23:06:19;;;;;;;34.57;17.57;;;4.50;99.90;;;;;;10254876;28;20071;-85
2021/12/18 23:11:29;;;;;;;32.70;17.87;;;4.50;99.90;;;;;;10248360;28;20041;-86
2021/12/18 23:16:55;;;;;;;31.87;15.77;;;4.50;99.90;;;;;;10252812;28;20086;-84
2021/12/18 23:21:57;;;;;;;25.00;13.03;;;4.50;99.90;;;;;;10250549;28;20032;-86
2021/12/18 23:26:58;;;;;;;27.80;13.03;;;4.50;99.90;;;;;;10230669;28;20134;-85
2021/12/18 23:31:59;;;;;;;26.97;12.53;;;4.50;99.90;;;;;;10250613;28;20023;-86
2021/12/18 23:37:01;;;;;;;35.30;16.90;;;4.50;99.90;;;;;;10250233;28;20471;-86
2021/12/18 23:42:04;;;;;;;19.13;10.23;;;4.50;99.90;;;;;;10271265;28;20023;-85
2021/12/18 23:47:05;;;;;;;17.37;9.50;;;4.60;99.90;;;;;;10285138;28;20039;-89
2021/12/18 23:52:06;;;;;;;26.87;13.70;;;4.60;99.90;;;;;;10285664;28;20054;-85
2021/12/18 23:57:07;;;;;;;20.73;10.90;;;4.60;99.90;;;;;;10286189;28;20115;-87
